sensor_id;sensor_type;location;lat;lon;timestamp;P1;durP1;ratioP1;P2;durP2;ratioP2
8297;SDS011;4187;42.778;23.242;2022-12-07T00:00:49;22.30;;;16.27;;
8297;SDS011;4187;42.778;23.242;2022-12-07T00:03:16;23.53;;;15.17;;
8297;SDS011;4187;42.778;23.242;2022-12-07T00:05:44;26.70;;;18.03;;
8297;SDS011;4187;42.778;23.242;2022-12-07T00:08:11;35.80;;;20.80;;
8297;SDS011;4187;42.778;23.242;2022-12-07T00:10:38;29.57;;;18.90;;
8297;SDS011;4187;42.778;23.242;2022-12-07T00:13:04;27.13;;;16.90;;
8297;SDS011;4187;42.778;23.242;2022-12-07T00:15:33;27.77;;;18.23;;
8297;SDS011;4187;42.778;23.242;2022-12-07T00:18:00;26.07;;;16.37;;
8297;SDS011;4187;42.778;23.242;2022-12-07T00:20:27;27.37;;;17.27;;
8297;SDS011;4187;42.778;23.242;2022-12-07T00:22:56;29.23;;;19.83;;
8297;SDS011;4187;42.778;23.242;2022-12-07T00:25:23;23.43;;;15.80;;
8297;SDS011;4187;42.778;23.242;2022-12-07T00:27:50;19.10;;;13.70;;
8297;SDS011;4187;42.778;23.242;2022-12-07T00:30:18;21.43;;;13.13;;
8297;SDS011;4187;42.778;23.242;2022-12-07T00:32:45;19.67;;;13.27;;
8297;SDS011;4187;42.778;23.242;2022-12-07T00:35:12;26.00;;;17.73;;
8297;SDS011;4187;42.778;23.242;2022-12-07T00:37:39;20.63;;;13.47;;
8297;SDS011;4187;42.778;23.242;2022-12-07T00:40:08;27.97;;;14.13;;
8297;SDS011;4187;42.778;23.242;2022-12-07T00:42:49;20.20;;;14.50;;
8297;SDS011;4187;42.778;23.242;2022-12-07T00:45:16;22.53;;;15.60;;
8297;SDS011;4187;42.778;23.242;2022-12-07T00:47:43;35.27;;;21.50;;
8297;SDS011;4187;42.778;23.242;2022-12-07T00:50:10;28.47;;;18.70;;
8297;SDS011;4187;42.778;23.242;2022-12-07T00:52:37;24.50;;;17.07;;
8297;SDS011;4187;42.778;23.242;2022-12-07T00:55:04;29.70;;;18.70;;
8297;SDS011;4187;42.778;23.242;2022-12-07T00:57:33;28.67;;;19.67;;
8297;SDS011;4187;42.778;23.242;2022-12-07T00:59:59;26.60;;;19.33;;
8297;SDS011;4187;42.778;23.242;2022-12-07T01:02:26;29.70;;;16.20;;
8297;SDS011;4187;42.778;23.242;2022-12-07T01:04:53;24.50;;;15.40;;
8297;SDS011;4187;42.778;23.242;2022-12-07T01:07:20;20.27;;;13.77;;
8297;SDS011;4187;42.778;23.242;2022-12-07T01:09:47;22.67;;;15.10;;
8297;SDS011;4187;42.778;23.242;2022-12-07T01:12:22;26.80;;;19.00;;
8297;SDS011;4187;42.778;23.242;2022-12-07T01:14:50;27.33;;;18.95;;
8297;SDS011;4187;42.778;23.242;2022-12-07T01:17:17;27.73;;;17.87;;
8297;SDS011;4187;42.778;23.242;2022-12-07T01:19:44;23.65;;;15.25;;
8297;SDS011;4187;42.778;23.242;2022-12-07T01:22:11;21.97;;;15.13;;
8297;SDS011;4187;42.778;23.242;2022-12-07T01:24:37;24.10;;;16.30;;
8297;SDS011;4187;42.778;23.242;2022-12-07T01:27:04;34.73;;;23.00;;
8297;SDS011;4187;42.778;23.242;2022-12-07T01:29:31;32.27;;;23.27;;
8297;SDS011;4187;42.778;23.242;2022-12-07T01:31:59;31.27;;;21.37;;
8297;SDS011;4187;42.778;23.242;2022-12-07T01:34:26;31.33;;;22.80;;
8297;SDS011;4187;42.778;23.242;2022-12-07T01:36:53;33.53;;;21.97;;
8297;SDS011;4187;42.778;23.242;2022-12-07T01:39:20;27.40;;;18.77;;
8297;SDS011;4187;42.778;23.242;2022-12-07T01:41:46;25.70;;;16.50;;
8297;SDS011;4187;42.778;23.242;2022-12-07T01:44:19;26.03;;;15.67;;
8297;SDS011;4187;42.778;23.242;2022-12-07T01:46:48;31.27;;;20.83;;
8297;SDS011;4187;42.778;23.242;2022-12-07T01:49:18;33.73;;;22.93;;
8297;SDS011;4187;42.778;23.242;2022-12-07T01:51:49;37.20;;;23.85;;
8297;SDS011;4187;42.778;23.242;2022-12-07T01:54:21;25.40;;;18.23;;
8297;SDS011;4187;42.778;23.242;2022-12-07T01:56:50;22.67;;;15.30;;
8297;SDS011;4187;42.778;23.242;2022-12-07T01:59:19;27.50;;;16.97;;
8297;SDS011;4187;42.778;23.242;2022-12-07T02:01:59;29.00;;;20.43;;
8297;SDS011;4187;42.778;23.242;2022-12-07T02:04:32;33.67;;;23.90;;
8297;SDS011;4187;42.778;23.242;2022-12-07T02:06:59;35.07;;;23.10;;
8297;SDS011;4187;42.778;23.242;2022-12-07T02:09:26;35.07;;;22.07;;
8297;SDS011;4187;42.778;23.242;2022-12-07T02:11:53;29.20;;;16.43;;
8297;SDS011;4187;42.778;23.242;2022-12-07T02:14:21;21.52;;;15.23;;
8297;SDS011;4187;42.778;23.242;2022-12-07T02:16:52;22.77;;;16.05;;
8297;SDS011;4187;42.778;23.242;2022-12-07T02:22:38;28.77;;;16.57;;
8297;SDS011;4187;42.778;23.242;2022-12-07T02:25:31;23.53;;;16.27;;
8297;SDS011;4187;42.778;23.242;2022-12-07T02:28:11;21.77;;;15.00;;
8297;SDS011;4187;42.778;23.242;2022-12-07T02:30:46;30.33;;;16.67;;
8297;SDS011;4187;42.778;23.242;2022-12-07T02:33:16;26.13;;;17.63;;
8297;SDS011;4187;42.778;23.242;2022-12-07T02:35:51;25.63;;;16.52;;
8297;SDS011;4187;42.778;23.242;2022-12-07T02:38:25;23.00;;;15.70;;
8297;SDS011;4187;42.778;23.242;2022-12-07T02:40:57;23.38;;;15.10;;
8297;SDS011;4187;42.778;23.242;2022-12-07T02:43:30;22.90;;;15.53;;
8297;SDS011;4187;42.778;23.242;2022-12-07T02:46:03;22.20;;;15.03;;
8297;SDS011;4187;42.778;23.242;2022-12-07T02:48:33;25.55;;;16.00;;
8297;SDS011;4187;42.778;23.242;2022-12-07T02:51:00;25.70;;;14.70;;
8297;SDS011;4187;42.778;23.242;2022-12-07T02:53:28;26.80;;;18.20;;
8297;SDS011;4187;42.778;23.242;2022-12-07T02:55:55;29.47;;;18.00;;
8297;SDS011;4187;42.778;23.242;2022-12-07T02:58:24;24.70;;;17.65;;
8297;SDS011;4187;42.778;23.242;2022-12-07T03:01:04;25.23;;;17.53;;
8297;SDS011;4187;42.778;23.242;2022-12-07T03:03:37;25.30;;;17.40;;
8297;SDS011;4187;42.778;23.242;2022-12-07T03:06:11;24.23;;;16.53;;
8297;SDS011;4187;42.778;23.242;2022-12-07T03:08:48;29.57;;;18.70;;
8297;SDS011;4187;42.778;23.242;2022-12-07T03:11:23;24.63;;;16.40;;
8297;SDS011;4187;42.778;23.242;2022-12-07T03:13:59;23.80;;;15.27;;
8297;SDS011;4187;42.778;23.242;2022-12-07T03:16:39;24.30;;;14.70;;
8297;SDS011;4187;42.778;23.242;2022-12-07T03:19:13;21.70;;;14.77;;
8297;SDS011;4187;42.778;23.242;2022-12-07T03:21:43;21.50;;;14.43;;
8297;SDS011;4187;42.778;23.242;2022-12-07T03:24:14;19.83;;;14.80;;
8297;SDS011;4187;42.778;23.242;2022-12-07T03:26:44;23.87;;;15.50;;
8297;SDS011;4187;42.778;23.242;2022-12-07T03:29:17;30.27;;;19.83;;
8297;SDS011;4187;42.778;23.242;2022-12-07T03:31:51;23.97;;;17.33;;
8297;SDS011;4187;42.778;23.242;2022-12-07T03:34:26;26.03;;;16.47;;
8297;SDS011;4187;42.778;23.242;2022-12-07T03:36:58;26.33;;;17.57;;
8297;SDS011;4187;42.778;23.242;2022-12-07T03:39:30;27.03;;;17.87;;
8297;SDS011;4187;42.778;23.242;2022-12-07T03:42:03;26.10;;;17.83;;
8297;SDS011;4187;42.778;23.242;2022-12-07T03:44:33;26.43;;;16.37;;
8297;SDS011;4187;42.778;23.242;2022-12-07T03:47:03;27.40;;;17.30;;
8297;SDS011;4187;42.778;23.242;2022-12-07T03:49:37;28.80;;;19.93;;
8297;SDS011;4187;42.778;23.242;2022-12-07T03:52:09;31.30;;;19.97;;
8297;SDS011;4187;42.778;23.242;2022-12-07T03:54:45;26.87;;;18.57;;
8297;SDS011;4187;42.778;23.242;2022-12-07T03:57:18;29.10;;;19.07;;
8297;SDS011;4187;42.778;23.242;2022-12-07T03:59:46;29.03;;;18.80;;
8297;SDS011;4187;42.778;23.242;2022-12-07T04:02:15;28.03;;;17.47;;
8297;SDS011;4187;42.778;23.242;2022-12-07T04:04:42;25.37;;;17.43;;
8297;SDS011;4187;42.778;23.242;2022-12-07T04:07:09;26.13;;;17.57;;
8297;SDS011;4187;42.778;23.242;2022-12-07T04:09:37;25.60;;;17.67;;
8297;SDS011;4187;42.778;23.242;2022-12-07T04:12:04;24.07;;;16.87;;
8297;SDS011;4187;42.778;23.242;2022-12-07T04:14:31;24.97;;;17.03;;
8297;SDS011;4187;42.778;23.242;2022-12-07T04:16:58;20.13;;;15.90;;
8297;SDS011;4187;42.778;23.242;2022-12-07T04:19:27;23.93;;;17.53;;
8297;SDS011;4187;42.778;23.242;2022-12-07T04:21:55;22.53;;;16.07;;
8297;SDS011;4187;42.778;23.242;2022-12-07T04:24:23;22.60;;;16.40;;
8297;SDS011;4187;42.778;23.242;2022-12-07T04:26:50;24.77;;;16.50;;
8297;SDS011;4187;42.778;23.242;2022-12-07T04:29:18;27.40;;;20.37;;
8297;SDS011;4187;42.778;23.242;2022-12-07T04:31:45;28.77;;;18.97;;
8297;SDS011;4187;42.778;23.242;2022-12-07T04:34:12;38.67;;;25.07;;
8297;SDS011;4187;42.778;23.242;2022-12-07T04:36:42;50.60;;;30.37;;
8297;SDS011;4187;42.778;23.242;2022-12-07T04:39:13;23.70;;;16.30;;
8297;SDS011;4187;42.778;23.242;2022-12-07T04:41:59;20.53;;;13.10;;
8297;SDS011;4187;42.778;23.242;2022-12-07T04:44:27;21.67;;;14.23;;
8297;SDS011;4187;42.778;23.242;2022-12-07T04:46:55;22.60;;;14.53;;
8297;SDS011;4187;42.778;23.242;2022-12-07T04:49:22;24.23;;;16.40;;
8297;SDS011;4187;42.778;23.242;2022-12-07T04:51:50;23.43;;;14.83;;
8297;SDS011;4187;42.778;23.242;2022-12-07T04:54:21;21.07;;;13.60;;
8297;SDS011;4187;42.778;23.242;2022-12-07T04:56:48;20.63;;;14.27;;
8297;SDS011;4187;42.778;23.242;2022-12-07T04:59:15;20.97;;;14.70;;
8297;SDS011;4187;42.778;23.242;2022-12-07T05:01:44;25.00;;;15.37;;
8297;SDS011;4187;42.778;23.242;2022-12-07T05:04:11;24.33;;;16.00;;
8297;SDS011;4187;42.778;23.242;2022-12-07T05:06:38;29.63;;;18.50;;
8297;SDS011;4187;42.778;23.242;2022-12-07T05:09:07;26.40;;;18.73;;
8297;SDS011;4187;42.778;23.242;2022-12-07T05:11:33;28.40;;;19.03;;
8297;SDS011;4187;42.778;23.242;2022-12-07T05:14:08;27.80;;;17.27;;
8297;SDS011;4187;42.778;23.242;2022-12-07T05:16:37;22.57;;;15.90;;
8297;SDS011;4187;42.778;23.242;2022-12-07T05:19:05;21.87;;;14.93;;
8297;SDS011;4187;42.778;23.242;2022-12-07T05:21:32;25.30;;;15.43;;
8297;SDS011;4187;42.778;23.242;2022-12-07T05:23:59;22.60;;;15.27;;
8297;SDS011;4187;42.778;23.242;2022-12-07T05:26:28;22.53;;;14.37;;
8297;SDS011;4187;42.778;23.242;2022-12-07T05:28:55;26.27;;;15.63;;
8297;SDS011;4187;42.778;23.242;2022-12-07T05:31:23;24.10;;;16.47;;
8297;SDS011;4187;42.778;23.242;2022-12-07T05:33:51;22.80;;;15.87;;
8297;SDS011;4187;42.778;23.242;2022-12-07T05:36:19;22.57;;;15.47;;
8297;SDS011;4187;42.778;23.242;2022-12-07T05:38:46;22.20;;;15.03;;
8297;SDS011;4187;42.778;23.242;2022-12-07T05:41:14;20.33;;;15.47;;
8297;SDS011;4187;42.778;23.242;2022-12-07T05:44:16;28.90;;;17.57;;
8297;SDS011;4187;42.778;23.242;2022-12-07T05:46:43;33.27;;;20.13;;
8297;SDS011;4187;42.778;23.242;2022-12-07T05:49:10;33.97;;;19.03;;
8297;SDS011;4187;42.778;23.242;2022-12-07T05:51:37;27.33;;;16.90;;
8297;SDS011;4187;42.778;23.242;2022-12-07T05:54:03;24.23;;;16.50;;
8297;SDS011;4187;42.778;23.242;2022-12-07T05:56:30;27.57;;;18.30;;
8297;SDS011;4187;42.778;23.242;2022-12-07T05:58:57;28.97;;;20.27;;
8297;SDS011;4187;42.778;23.242;2022-12-07T06:01:43;56.23;;;32.60;;
8297;SDS011;4187;42.778;23.242;2022-12-07T06:04:10;49.17;;;29.87;;
8297;SDS011;4187;42.778;23.242;2022-12-07T06:06:36;45.77;;;25.23;;
8297;SDS011;4187;42.778;23.242;2022-12-07T06:09:03;38.60;;;24.00;;
8297;SDS011;4187;42.778;23.242;2022-12-07T06:11:30;46.77;;;26.97;;
8297;SDS011;4187;42.778;23.242;2022-12-07T06:14:15;47.83;;;29.40;;
8297;SDS011;4187;42.778;23.242;2022-12-07T06:16:43;50.93;;;30.83;;
8297;SDS011;4187;42.778;23.242;2022-12-07T06:19:10;44.17;;;29.37;;
8297;SDS011;4187;42.778;23.242;2022-12-07T06:21:37;33.90;;;22.53;;
8297;SDS011;4187;42.778;23.242;2022-12-07T06:24:04;31.50;;;18.87;;
8297;SDS011;4187;42.778;23.242;2022-12-07T06:26:31;30.73;;;16.87;;
8297;SDS011;4187;42.778;23.242;2022-12-07T06:28:58;27.27;;;16.07;;
8297;SDS011;4187;42.778;23.242;2022-12-07T06:31:24;27.77;;;18.87;;
8297;SDS011;4187;42.778;23.242;2022-12-07T06:33:56;35.63;;;24.30;;
8297;SDS011;4187;42.778;23.242;2022-12-07T06:36:23;27.90;;;20.13;;
8297;SDS011;4187;42.778;23.242;2022-12-07T06:38:50;25.73;;;17.40;;
8297;SDS011;4187;42.778;23.242;2022-12-07T06:41:17;33.43;;;21.80;;
8297;SDS011;4187;42.778;23.242;2022-12-07T06:43:44;26.10;;;17.13;;
8297;SDS011;4187;42.778;23.242;2022-12-07T06:46:11;25.70;;;17.07;;
8297;SDS011;4187;42.778;23.242;2022-12-07T06:48:38;26.43;;;17.83;;
8297;SDS011;4187;42.778;23.242;2022-12-07T06:51:06;42.13;;;29.23;;
8297;SDS011;4187;42.778;23.242;2022-12-07T06:53:33;32.27;;;16.57;;
8297;SDS011;4187;42.778;23.242;2022-12-07T06:56:00;23.43;;;14.27;;
8297;SDS011;4187;42.778;23.242;2022-12-07T06:58:27;20.97;;;14.47;;
8297;SDS011;4187;42.778;23.242;2022-12-07T07:00:54;22.43;;;14.53;;
8297;SDS011;4187;42.778;23.242;2022-12-07T07:03:21;22.47;;;14.73;;
8297;SDS011;4187;42.778;23.242;2022-12-07T07:05:48;25.33;;;15.73;;
8297;SDS011;4187;42.778;23.242;2022-12-07T07:08:16;20.33;;;13.83;;
8297;SDS011;4187;42.778;23.242;2022-12-07T07:10:43;20.80;;;13.77;;
8297;SDS011;4187;42.778;23.242;2022-12-07T07:13:10;22.53;;;14.67;;
8297;SDS011;4187;42.778;23.242;2022-12-07T07:15:37;26.37;;;19.43;;
8297;SDS011;4187;42.778;23.242;2022-12-07T07:18:04;51.30;;;34.23;;
8297;SDS011;4187;42.778;23.242;2022-12-07T07:20:31;32.03;;;21.60;;
8297;SDS011;4187;42.778;23.242;2022-12-07T07:22:58;42.67;;;24.67;;
8297;SDS011;4187;42.778;23.242;2022-12-07T07:25:26;30.97;;;22.77;;
8297;SDS011;4187;42.778;23.242;2022-12-07T07:27:53;34.73;;;22.50;;
8297;SDS011;4187;42.778;23.242;2022-12-07T07:30:20;33.30;;;21.27;;
8297;SDS011;4187;42.778;23.242;2022-12-07T07:32:56;39.60;;;21.80;;
8297;SDS011;4187;42.778;23.242;2022-12-07T07:35:23;32.97;;;20.97;;
8297;SDS011;4187;42.778;23.242;2022-12-07T07:37:50;30.43;;;19.13;;
8297;SDS011;4187;42.778;23.242;2022-12-07T07:40:17;28.53;;;18.73;;
8297;SDS011;4187;42.778;23.242;2022-12-07T07:42:47;37.43;;;23.83;;
8297;SDS011;4187;42.778;23.242;2022-12-07T07:45:15;36.40;;;21.70;;
8297;SDS011;4187;42.778;23.242;2022-12-07T07:47:41;41.40;;;28.10;;
8297;SDS011;4187;42.778;23.242;2022-12-07T07:50:09;63.03;;;39.70;;
8297;SDS011;4187;42.778;23.242;2022-12-07T07:52:36;64.00;;;38.17;;
8297;SDS011;4187;42.778;23.242;2022-12-07T07:55:03;59.20;;;37.43;;
8297;SDS011;4187;42.778;23.242;2022-12-07T07:57:31;48.00;;;32.33;;
8297;SDS011;4187;42.778;23.242;2022-12-07T08:00:11;48.23;;;30.67;;
8297;SDS011;4187;42.778;23.242;2022-12-07T08:02:40;41.53;;;27.40;;
8297;SDS011;4187;42.778;23.242;2022-12-07T08:05:08;36.77;;;24.23;;
8297;SDS011;4187;42.778;23.242;2022-12-07T08:07:35;37.20;;;24.40;;
8297;SDS011;4187;42.778;23.242;2022-12-07T08:10:02;38.00;;;23.30;;
8297;SDS011;4187;42.778;23.242;2022-12-07T08:12:29;29.63;;;19.63;;
8297;SDS011;4187;42.778;23.242;2022-12-07T08:14:56;27.13;;;17.77;;
8297;SDS011;4187;42.778;23.242;2022-12-07T08:17:25;30.15;;;18.58;;
8297;SDS011;4187;42.778;23.242;2022-12-07T08:19:52;28.30;;;17.43;;
8297;SDS011;4187;42.778;23.242;2022-12-07T08:22:18;27.15;;;19.23;;
8297;SDS011;4187;42.778;23.242;2022-12-07T08:24:45;30.52;;;18.55;;
8297;SDS011;4187;42.778;23.242;2022-12-07T08:27:12;28.45;;;18.60;;
8297;SDS011;4187;42.778;23.242;2022-12-07T08:29:39;23.40;;;16.25;;
8297;SDS011;4187;42.778;23.242;2022-12-07T08:32:06;33.10;;;18.20;;
8297;SDS011;4187;42.778;23.242;2022-12-07T08:34:34;30.75;;;20.02;;
8297;SDS011;4187;42.778;23.242;2022-12-07T08:37:02;27.30;;;19.77;;
8297;SDS011;4187;42.778;23.242;2022-12-07T08:39:29;24.65;;;18.27;;
8297;SDS011;4187;42.778;23.242;2022-12-07T08:41:56;24.13;;;17.17;;
8297;SDS011;4187;42.778;23.242;2022-12-07T08:44:23;23.83;;;16.70;;
8297;SDS011;4187;42.778;23.242;2022-12-07T08:46:50;22.75;;;16.00;;
8297;SDS011;4187;42.778;23.242;2022-12-07T08:49:21;26.65;;;16.02;;
8297;SDS011;4187;42.778;23.242;2022-12-07T08:51:53;23.17;;;16.30;;
8297;SDS011;4187;42.778;23.242;2022-12-07T08:54:21;22.05;;;14.93;;
8297;SDS011;4187;42.778;23.242;2022-12-07T08:56:48;22.50;;;16.00;;
8297;SDS011;4187;42.778;23.242;2022-12-07T08:59:17;27.23;;;17.67;;
8297;SDS011;4187;42.778;23.242;2022-12-07T09:01:45;24.33;;;15.43;;
8297;SDS011;4187;42.778;23.242;2022-12-07T09:04:12;22.85;;;16.05;;
8297;SDS011;4187;42.778;23.242;2022-12-07T09:06:40;23.90;;;16.98;;
8297;SDS011;4187;42.778;23.242;2022-12-07T09:09:09;25.45;;;16.80;;
8297;SDS011;4187;42.778;23.242;2022-12-07T09:11:38;23.73;;;15.80;;
8297;SDS011;4187;42.778;23.242;2022-12-07T09:14:05;29.38;;;15.73;;
8297;SDS011;4187;42.778;23.242;2022-12-07T09:16:32;18.30;;;13.80;;
8297;SDS011;4187;42.778;23.242;2022-12-07T09:18:59;18.83;;;14.05;;
8297;SDS011;4187;42.778;23.242;2022-12-07T09:21:25;24.98;;;13.93;;
8297;SDS011;4187;42.778;23.242;2022-12-07T09:23:52;24.42;;;16.42;;
8297;SDS011;4187;42.778;23.242;2022-12-07T09:26:20;20.25;;;14.82;;
8297;SDS011;4187;42.778;23.242;2022-12-07T09:28:47;22.48;;;14.52;;
8297;SDS011;4187;42.778;23.242;2022-12-07T09:31:14;18.08;;;14.85;;
8297;SDS011;4187;42.778;23.242;2022-12-07T09:33:41;20.20;;;15.27;;
8297;SDS011;4187;42.778;23.242;2022-12-07T09:36:08;26.58;;;16.02;;
8297;SDS011;4187;42.778;23.242;2022-12-07T09:38:35;22.75;;;15.80;;
8297;SDS011;4187;42.778;23.242;2022-12-07T09:41:04;29.58;;;16.25;;
8297;SDS011;4187;42.778;23.242;2022-12-07T09:43:33;27.77;;;16.40;;
8297;SDS011;4187;42.778;23.242;2022-12-07T09:46:02;25.75;;;16.08;;
8297;SDS011;4187;42.778;23.242;2022-12-07T09:48:30;33.47;;;20.25;;
8297;SDS011;4187;42.778;23.242;2022-12-07T09:51:00;34.33;;;19.73;;
8297;SDS011;4187;42.778;23.242;2022-12-07T09:53:29;30.60;;;19.52;;
8297;SDS011;4187;42.778;23.242;2022-12-07T09:55:59;26.92;;;18.67;;
8297;SDS011;4187;42.778;23.242;2022-12-07T09:58:27;33.10;;;20.98;;
8297;SDS011;4187;42.778;23.242;2022-12-07T10:00:58;31.52;;;20.10;;
8297;SDS011;4187;42.778;23.242;2022-12-07T10:03:27;33.35;;;20.02;;
8297;SDS011;4187;42.778;23.242;2022-12-07T10:05:55;28.58;;;19.58;;
8297;SDS011;4187;42.778;23.242;2022-12-07T10:08:24;30.67;;;19.13;;
8297;SDS011;4187;42.778;23.242;2022-12-07T10:10:52;25.05;;;17.30;;
8297;SDS011;4187;42.778;23.242;2022-12-07T10:13:22;25.85;;;17.52;;
8297;SDS011;4187;42.778;23.242;2022-12-07T10:16:01;23.42;;;17.40;;
8297;SDS011;4187;42.778;23.242;2022-12-07T10:18:30;27.10;;;17.70;;
8297;SDS011;4187;42.778;23.242;2022-12-07T10:21:12;25.17;;;17.80;;
8297;SDS011;4187;42.778;23.242;2022-12-07T10:23:42;24.08;;;17.20;;
8297;SDS011;4187;42.778;23.242;2022-12-07T10:26:32;27.42;;;17.83;;
8297;SDS011;4187;42.778;23.242;2022-12-07T10:29:01;25.48;;;17.55;;
8297;SDS011;4187;42.778;23.242;2022-12-07T10:31:40;25.48;;;17.23;;
8297;SDS011;4187;42.778;23.242;2022-12-07T10:34:14;24.98;;;17.60;;
8297;SDS011;4187;42.778;23.242;2022-12-07T10:36:49;25.23;;;16.98;;
8297;SDS011;4187;42.778;23.242;2022-12-07T10:39:17;28.67;;;18.98;;
8297;SDS011;4187;42.778;23.242;2022-12-07T10:41:55;25.67;;;16.35;;
8297;SDS011;4187;42.778;23.242;2022-12-07T10:44:23;24.95;;;17.08;;
8297;SDS011;4187;42.778;23.242;2022-12-07T10:52:46;25.40;;;18.45;;
8297;SDS011;4187;42.778;23.242;2022-12-07T10:55:35;25.55;;;18.30;;
8297;SDS011;4187;42.778;23.242;2022-12-07T10:58:23;27.27;;;18.08;;
8297;SDS011;4187;42.778;23.242;2022-12-07T11:01:00;24.20;;;18.30;;
8297;SDS011;4187;42.778;23.242;2022-12-07T11:03:41;27.67;;;19.40;;
8297;SDS011;4187;42.778;23.242;2022-12-07T11:06:17;22.77;;;16.88;;
8297;SDS011;4187;42.778;23.242;2022-12-07T11:09:00;24.13;;;15.93;;
8297;SDS011;4187;42.778;23.242;2022-12-07T11:11:43;22.48;;;15.82;;
8297;SDS011;4187;42.778;23.242;2022-12-07T11:14:20;20.70;;;14.98;;
8297;SDS011;4187;42.778;23.242;2022-12-07T11:16:55;21.75;;;14.50;;
8297;SDS011;4187;42.778;23.242;2022-12-07T11:19:34;25.83;;;14.40;;
8297;SDS011;4187;42.778;23.242;2022-12-07T11:22:17;19.50;;;13.60;;
8297;SDS011;4187;42.778;23.242;2022-12-07T11:24:50;20.88;;;13.75;;
8297;SDS011;4187;42.778;23.242;2022-12-07T11:27:26;18.42;;;13.57;;
8297;SDS011;4187;42.778;23.242;2022-12-07T11:30:08;18.10;;;12.70;;
8297;SDS011;4187;42.778;23.242;2022-12-07T11:32:55;16.85;;;12.27;;
8297;SDS011;4187;42.778;23.242;2022-12-07T11:35:34;16.27;;;12.00;;
8297;SDS011;4187;42.778;23.242;2022-12-07T11:38:12;20.10;;;12.85;;
8297;SDS011;4187;42.778;23.242;2022-12-07T11:40:43;21.38;;;14.07;;
8297;SDS011;4187;42.778;23.242;2022-12-07T11:43:17;20.63;;;13.55;;
8297;SDS011;4187;42.778;23.242;2022-12-07T11:45:52;19.48;;;12.25;;
8297;SDS011;4187;42.778;23.242;2022-12-07T11:48:29;20.05;;;13.38;;
8297;SDS011;4187;42.778;23.242;2022-12-07T11:51:01;24.30;;;14.07;;
8297;SDS011;4187;42.778;23.242;2022-12-07T11:53:31;25.95;;;14.27;;
8297;SDS011;4187;42.778;23.242;2022-12-07T11:56:06;16.88;;;13.63;;
8297;SDS011;4187;42.778;23.242;2022-12-07T11:58:39;18.15;;;13.82;;
8297;SDS011;4187;42.778;23.242;2022-12-07T12:01:14;19.95;;;14.45;;
8297;SDS011;4187;42.778;23.242;2022-12-07T12:03:51;20.98;;;13.40;;
8297;SDS011;4187;42.778;23.242;2022-12-07T12:06:21;17.50;;;14.40;;
8297;SDS011;4187;42.778;23.242;2022-12-07T12:08:49;21.55;;;13.23;;
8297;SDS011;4187;42.778;23.242;2022-12-07T12:11:25;22.27;;;14.82;;
8297;SDS011;4187;42.778;23.242;2022-12-07T12:14:22;21.10;;;15.77;;
8297;SDS011;4187;42.778;23.242;2022-12-07T12:17:06;22.90;;;15.15;;
8297;SDS011;4187;42.778;23.242;2022-12-07T12:19:59;22.10;;;15.02;;
8297;SDS011;4187;42.778;23.242;2022-12-07T12:22:34;21.42;;;14.38;;
8297;SDS011;4187;42.778;23.242;2022-12-07T12:25:06;19.60;;;14.13;;
8297;SDS011;4187;42.778;23.242;2022-12-07T12:27:45;20.52;;;13.70;;
8297;SDS011;4187;42.778;23.242;2022-12-07T12:30:24;18.92;;;13.68;;
8297;SDS011;4187;42.778;23.242;2022-12-07T12:33:01;22.40;;;14.65;;
8297;SDS011;4187;42.778;23.242;2022-12-07T12:35:30;25.10;;;14.82;;
8297;SDS011;4187;42.778;23.242;2022-12-07T12:41:00;22.58;;;14.50;;
8297;SDS011;4187;42.778;23.242;2022-12-07T12:43:43;19.27;;;13.88;;
8297;SDS011;4187;42.778;23.242;2022-12-07T12:55:15;16.75;;;13.10;;
8297;SDS011;4187;42.778;23.242;2022-12-07T12:57:46;20.52;;;14.88;;
8297;SDS011;4187;42.778;23.242;2022-12-07T13:00:18;20.77;;;14.23;;
8297;SDS011;4187;42.778;23.242;2022-12-07T13:02:49;18.02;;;12.15;;
8297;SDS011;4187;42.778;23.242;2022-12-07T13:05:19;22.25;;;14.32;;
8297;SDS011;4187;42.778;23.242;2022-12-07T13:07:50;17.13;;;12.45;;
8297;SDS011;4187;42.778;23.242;2022-12-07T13:10:22;33.70;;;22.33;;
8297;SDS011;4187;42.778;23.242;2022-12-07T13:12:58;26.73;;;19.38;;
8297;SDS011;4187;42.778;23.242;2022-12-07T13:15:33;19.13;;;13.23;;
8297;SDS011;4187;42.778;23.242;2022-12-07T13:18:03;19.58;;;14.50;;
8297;SDS011;4187;42.778;23.242;2022-12-07T13:20:52;17.88;;;12.40;;
8297;SDS011;4187;42.778;23.242;2022-12-07T13:23:30;29.05;;;19.63;;
8297;SDS011;4187;42.778;23.242;2022-12-07T13:26:08;29.35;;;18.50;;
8297;SDS011;4187;42.778;23.242;2022-12-07T13:28:40;22.40;;;14.93;;
8297;SDS011;4187;42.778;23.242;2022-12-07T13:31:13;17.63;;;13.30;;
8297;SDS011;4187;42.778;23.242;2022-12-07T13:33:45;22.05;;;16.88;;
8297;SDS011;4187;42.778;23.242;2022-12-07T13:36:18;25.52;;;15.65;;
8297;SDS011;4187;42.778;23.242;2022-12-07T13:38:48;54.45;;;29.80;;
8297;SDS011;4187;42.778;23.242;2022-12-07T13:41:19;29.63;;;19.88;;
8297;SDS011;4187;42.778;23.242;2022-12-07T13:43:51;26.48;;;17.30;;
8297;SDS011;4187;42.778;23.242;2022-12-07T13:49:21;14.75;;;11.55;;
8297;SDS011;4187;42.778;23.242;2022-12-07T13:51:50;17.02;;;12.25;;
8297;SDS011;4187;42.778;23.242;2022-12-07T13:54:18;14.35;;;11.70;;
8297;SDS011;4187;42.778;23.242;2022-12-07T13:56:49;15.65;;;11.60;;
8297;SDS011;4187;42.778;23.242;2022-12-07T13:59:18;22.83;;;15.02;;
8297;SDS011;4187;42.778;23.242;2022-12-07T14:01:47;17.63;;;12.23;;
8297;SDS011;4187;42.778;23.242;2022-12-07T14:04:18;18.70;;;12.75;;
8297;SDS011;4187;42.778;23.242;2022-12-07T14:06:53;18.20;;;11.35;;
8297;SDS011;4187;42.778;23.242;2022-12-07T14:09:21;15.50;;;11.90;;
8297;SDS011;4187;42.778;23.242;2022-12-07T14:11:51;20.98;;;13.40;;
8297;SDS011;4187;42.778;23.242;2022-12-07T14:14:20;19.92;;;13.27;;
8297;SDS011;4187;42.778;23.242;2022-12-07T14:16:58;18.15;;;12.70;;
8297;SDS011;4187;42.778;23.242;2022-12-07T14:19:44;19.27;;;12.00;;
8297;SDS011;4187;42.778;23.242;2022-12-07T14:22:26;33.78;;;19.67;;
8297;SDS011;4187;42.778;23.242;2022-12-07T14:25:01;29.80;;;21.25;;
8297;SDS011;4187;42.778;23.242;2022-12-07T14:27:48;29.52;;;19.30;;
8297;SDS011;4187;42.778;23.242;2022-12-07T14:30:21;33.85;;;21.27;;
8297;SDS011;4187;42.778;23.242;2022-12-07T14:32:51;24.20;;;18.33;;
8297;SDS011;4187;42.778;23.242;2022-12-07T14:35:19;24.95;;;17.95;;
8297;SDS011;4187;42.778;23.242;2022-12-07T14:37:47;28.00;;;21.00;;
8297;SDS011;4187;42.778;23.242;2022-12-07T14:40:16;32.97;;;21.85;;
8297;SDS011;4187;42.778;23.242;2022-12-07T14:42:44;29.83;;;21.90;;
8297;SDS011;4187;42.778;23.242;2022-12-07T14:45:15;38.30;;;24.63;;
8297;SDS011;4187;42.778;23.242;2022-12-07T14:47:43;51.33;;;37.35;;
8297;SDS011;4187;42.778;23.242;2022-12-07T14:50:11;24.77;;;18.35;;
8297;SDS011;4187;42.778;23.242;2022-12-07T14:52:39;35.90;;;22.63;;
8297;SDS011;4187;42.778;23.242;2022-12-07T14:55:12;30.50;;;20.58;;
8297;SDS011;4187;42.778;23.242;2022-12-07T14:57:46;61.85;;;35.13;;
8297;SDS011;4187;42.778;23.242;2022-12-07T15:00:16;46.05;;;31.00;;
8297;SDS011;4187;42.778;23.242;2022-12-07T15:02:44;75.45;;;44.28;;
8297;SDS011;4187;42.778;23.242;2022-12-07T15:05:10;63.13;;;42.33;;
8297;SDS011;4187;42.778;23.242;2022-12-07T15:07:38;118.68;;;73.63;;
8297;SDS011;4187;42.778;23.242;2022-12-07T15:10:06;128.45;;;86.07;;
8297;SDS011;4187;42.778;23.242;2022-12-07T15:12:39;71.10;;;44.05;;
8297;SDS011;4187;42.778;23.242;2022-12-07T15:15:06;113.10;;;75.07;;
8297;SDS011;4187;42.778;23.242;2022-12-07T15:17:35;186.93;;;125.25;;